Cumberland, Illinois
Current Conditions -  °F | °C
As of 3:53 AM on Monday 22 Dec 2014 (Local Time) from KMTO Reporting Station
Overcast Overcast  
Wind Chill: 24°   Ceiling: 6500
Heat Index: 33°   Visibility: 8mi
Dew Point: 28°   Wind: 12mph
Humidity: 82%   Direction: 130°SE
Pressure: 29.92"   Gusts: NA
Location:  39.2896°N, 88.2485°W
Report Text: KMTO 220953Z AUTO 13010KT 8SM FEW048 OVC065 01/M02 A2992 RMK AO2 SLP136 T00061022
Loading
Personal Weather Stations






























Interactive Weather Map New forecast layout! Learn more

10-Day Weather Forecast

Advertisements
Track Severe Weather on mobile